createdAt,value
2019-05-25T00:00:32.310Z,3.20
2019-05-25T00:02:58.167Z,3.25
2019-05-25T00:05:24.421Z,3.42
2019-05-25T00:07:50.660Z,2.95
2019-05-25T00:10:17.198Z,3.65
2019-05-25T00:12:43.422Z,3.55
2019-05-25T00:15:09.361Z,3.42
2019-05-25T00:17:35.474Z,3.20
2019-05-25T00:20:02.049Z,3.30
2019-05-25T00:22:28.336Z,2.95
2019-05-25T00:24:54.568Z,3.15
2019-05-25T00:27:20.803Z,3.05
2019-05-25T00:29:47.022Z,3.30
2019-05-25T00:32:13.258Z,2.77
2019-05-25T00:34:39.519Z,3.33
2019-05-25T00:37:05.348Z,3.12
2019-05-25T00:39:31.187Z,2.83
2019-05-25T00:41:57.353Z,3.90
2019-05-25T00:44:23.581Z,3.83
2019-05-25T00:46:49.857Z,3.10
2019-05-25T00:49:15.690Z,3.42
2019-05-25T00:51:41.540Z,3.05
2019-05-25T00:54:07.677Z,3.42
2019-05-25T00:56:33.898Z,3.20
2019-05-25T00:58:59.727Z,3.50
2019-05-25T01:01:25.549Z,3.40
2019-05-25T01:03:51.781Z,3.55
2019-05-25T01:06:18.001Z,3.58
2019-05-25T01:08:44.234Z,3.83
2019-05-25T01:11:10.112Z,3.70
2019-05-25T01:13:36.290Z,3.80
2019-05-25T01:16:02.516Z,3.47
2019-05-25T01:18:28.395Z,3.50
2019-05-25T01:20:54.566Z,3.65
2019-05-25T01:23:20.447Z,3.62
2019-05-25T01:25:46.709Z,3.87
2019-05-25T01:28:13.257Z,4.50
2019-05-25T01:30:39.041Z,4.33
2019-05-25T01:33:04.869Z,3.87
2019-05-25T01:35:30.738Z,3.70
2019-05-25T01:37:56.599Z,3.55
2019-05-25T01:40:22.439Z,4.20
2019-05-25T01:42:49.019Z,3.87
2019-05-25T01:45:14.966Z,3.90
2019-05-25T01:47:41.566Z,3.58
2019-05-25T01:50:07.388Z,3.37
2019-05-25T01:52:33.258Z,3.77
2019-05-25T01:55:00.445Z,3.47
2019-05-25T01:57:26.489Z,3.90
2019-05-25T01:59:52.651Z,4.40
2019-05-25T02:02:18.550Z,3.98
2019-05-25T02:04:44.698Z,4.05
2019-05-25T02:07:10.650Z,4.10
2019-05-25T02:09:37.176Z,4.30
2019-05-25T02:12:02.934Z,3.90
2019-05-25T02:14:28.794Z,4.53
2019-05-25T02:16:54.653Z,4.17
2019-05-25T02:19:20.528Z,4.22
2019-05-25T02:21:46.357Z,4.20
2019-05-25T02:24:12.512Z,3.92
2019-05-25T02:26:38.744Z,4.37
2019-05-25T02:29:04.574Z,4.53
2019-05-25T02:31:30.700Z,4.70
2019-05-25T02:33:56.543Z,5.12
2019-05-25T02:36:22.629Z,6.30
2019-05-25T02:38:48.463Z,4.90
2019-05-25T02:41:14.307Z,5.67
2019-05-25T02:43:40.593Z,5.47
2019-05-25T02:46:06.454Z,5.67
2019-05-25T02:48:32.885Z,5.97
2019-05-25T02:50:58.773Z,5.42
2019-05-25T02:53:24.754Z,5.62
2019-05-25T02:55:50.594Z,6.17
2019-05-25T02:58:16.423Z,6.53
2019-05-25T03:00:42.299Z,6.05
2019-05-25T03:03:08.147Z,6.65
2019-05-25T03:05:34.006Z,6.53
2019-05-25T03:07:59.852Z,6.50
2019-05-25T03:10:25.680Z,6.55
2019-05-25T03:12:52.473Z,6.97
2019-05-25T03:15:18.581Z,7.37
2019-05-25T03:17:44.456Z,7.30
2019-05-25T03:20:10.311Z,8.20
2019-05-25T03:22:36.780Z,8.65
2019-05-25T03:25:06.270Z,8.80
2019-05-25T03:27:32.510Z,8.78
2019-05-25T03:29:58.418Z,8.55
2019-05-25T03:32:24.197Z,8.18
2019-05-25T03:34:50.378Z,7.90
2019-05-25T03:37:16.606Z,8.43
2019-05-25T03:39:42.834Z,8.30
2019-05-25T03:42:08.683Z,7.50
2019-05-25T03:44:34.554Z,7.97
2019-05-25T03:47:00.396Z,7.67
2019-05-25T03:49:26.513Z,8.30
2019-05-25T03:51:52.369Z,8.10
2019-05-25T03:54:18.565Z,8.80
2019-05-25T03:56:44.789Z,8.58
2019-05-25T03:59:11.022Z,10.48
2019-05-25T04:01:37.357Z,10.45
2019-05-25T04:04:03.243Z,11.70
2019-05-25T04:06:29.090Z,10.40
2019-05-25T04:08:54.906Z,12.58
2019-05-25T04:11:20.775Z,11.28
2019-05-25T04:13:47.288Z,13.40
2019-05-25T04:16:13.148Z,12.85
2019-05-25T04:18:39.745Z,12.73
2019-05-25T04:21:05.986Z,12.18
2019-05-25T04:23:31.935Z,12.43
2019-05-25T04:25:57.825Z,12.73
2019-05-25T04:28:24.271Z,12.60
2019-05-25T04:30:50.129Z,13.10
2019-05-25T04:33:16.071Z,12.50
2019-05-25T04:35:41.896Z,12.95
2019-05-25T04:38:08.352Z,13.22
2019-05-25T04:40:34.577Z,12.30
2019-05-25T04:43:00.417Z,12.82
2019-05-25T04:45:26.281Z,13.15
2019-05-25T04:47:52.158Z,12.28
2019-05-25T04:50:18.008Z,13.80
2019-05-25T04:52:43.856Z,11.78
2019-05-25T04:55:10.088Z,13.30
2019-05-25T04:57:36.548Z,11.75
2019-05-25T05:00:04.423Z,11.35
2019-05-25T05:02:30.254Z,11.48
2019-05-25T05:04:56.132Z,11.28
2019-05-25T05:07:21.979Z,11.53
2019-05-25T05:10:01.805Z,10.82
2019-05-25T05:12:16.305Z,11.08
2019-05-25T05:14:42.599Z,10.63
2019-05-25T05:17:08.439Z,10.32
2019-05-25T05:19:34.927Z,11.28
2019-05-25T05:22:01.480Z,11.85
2019-05-25T05:24:27.807Z,10.03
2019-05-25T05:26:56.161Z,11.30
2019-05-25T05:29:21.934Z,10.63
2019-05-25T05:31:47.791Z,10.55
2019-05-25T05:34:13.970Z,11.08
2019-05-25T05:36:39.804Z,10.93
2019-05-25T05:39:06.729Z,12.47
2019-05-25T05:41:32.611Z,11.35
2019-05-25T05:43:58.441Z,10.85
2019-05-25T05:46:24.274Z,9.58
2019-05-25T05:48:50.872Z,10.85
2019-05-25T05:51:18.638Z,10.43
2019-05-25T05:53:45.133Z,10.72
2019-05-25T05:56:11.601Z,10.58
2019-05-25T05:58:37.947Z,10.48
2019-05-25T06:01:04.564Z,10.82
2019-05-25T06:03:30.427Z,11.25
2019-05-25T06:05:56.614Z,11.00
2019-05-25T06:08:22.843Z,10.23
2019-05-25T06:10:49.076Z,10.53
2019-05-25T06:13:14.916Z,10.32
2019-05-25T06:15:40.807Z,9.98
2019-05-25T06:18:06.636Z,9.98
2019-05-25T06:20:32.851Z,11.20
2019-05-25T06:22:58.769Z,9.50
2019-05-25T06:25:24.902Z,9.18
2019-05-25T06:27:50.721Z,9.03
2019-05-25T06:30:16.643Z,8.58
2019-05-25T06:32:42.533Z,9.23
2019-05-25T06:35:08.556Z,8.68
2019-05-25T06:37:34.371Z,8.60
2019-05-25T06:40:01.262Z,7.97
2019-05-25T06:42:27.097Z,9.03
2019-05-25T06:44:52.975Z,8.45
2019-05-25T06:47:18.814Z,9.30
2019-05-25T06:49:44.645Z,9.10
2019-05-25T06:52:10.962Z,8.65
2019-05-25T06:54:36.814Z,8.90
2019-05-25T06:57:02.955Z,9.40
2019-05-25T06:59:29.562Z,9.88
2019-05-25T07:01:55.729Z,10.53
2019-05-25T07:04:22.034Z,10.90
2019-05-25T07:06:47.854Z,10.58
2019-05-25T07:09:16.019Z,11.12
2019-05-25T07:11:43.329Z,12.53
2019-05-25T07:14:09.183Z,12.63
2019-05-25T07:16:35.382Z,13.05
2019-05-25T07:19:01.584Z,13.20
2019-05-25T07:21:27.405Z,12.40
2019-05-25T07:23:54.003Z,10.13
2019-05-25T07:26:19.836Z,11.00
2019-05-25T07:28:46.006Z,10.82
2019-05-25T07:31:11.869Z,10.88
2019-05-25T07:33:37.990Z,9.85
2019-05-25T07:36:07.604Z,10.30
2019-05-25T07:38:31.930Z,10.65
2019-05-25T07:40:57.872Z,9.93
2019-05-25T07:43:23.747Z,10.82
2019-05-25T07:45:49.958Z,12.03
2019-05-25T07:48:16.200Z,12.10
2019-05-25T07:50:42.433Z,12.60
2019-05-25T07:53:08.280Z,11.53
2019-05-25T07:55:34.218Z,12.37
2019-05-25T07:58:15.561Z,12.75
2019-05-25T08:00:28.329Z,13.68
2019-05-25T08:02:54.807Z,13.93
2019-05-25T08:05:21.144Z,14.65
2019-05-25T08:07:47.259Z,14.80
2019-05-25T08:10:13.871Z,15.68
2019-05-25T08:12:40.148Z,18.00
2019-05-25T08:15:07.188Z,17.15
2019-05-25T08:17:33.502Z,18.57
2019-05-25T08:19:59.336Z,20.37
2019-05-25T08:22:25.195Z,19.62
2019-05-25T08:24:51.424Z,18.30
2019-05-25T08:27:17.832Z,18.00
2019-05-25T08:29:44.105Z,16.25
2019-05-25T08:32:10.286Z,15.80
2019-05-25T08:34:36.510Z,16.32
2019-05-25T08:37:02.840Z,16.10
2019-05-25T08:39:28.686Z,15.60
2019-05-25T08:41:55.205Z,15.93
2019-05-25T08:44:21.064Z,15.72
2019-05-25T08:46:48.479Z,15.55
2019-05-25T08:49:14.312Z,14.47
2019-05-25T08:51:41.349Z,14.98
2019-05-25T08:54:07.590Z,15.75
2019-05-25T08:56:34.222Z,14.20
2019-05-25T08:59:00.056Z,14.00
2019-05-25T09:01:25.918Z,14.55
2019-05-25T09:03:51.789Z,15.53
2019-05-25T09:06:17.909Z,15.83
2019-05-25T09:08:43.803Z,14.98
2019-05-25T09:11:10.374Z,15.88
2019-05-25T09:13:41.032Z,17.05
2019-05-25T09:16:07.201Z,15.78
2019-05-25T09:18:33.702Z,14.98
2019-05-25T09:20:59.918Z,15.93
2019-05-25T09:23:26.153Z,16.73
2019-05-25T09:25:53.467Z,16.48
2019-05-25T09:28:19.297Z,15.53
2019-05-25T09:30:45.170Z,17.62
2019-05-25T09:33:11.018Z,16.50
2019-05-25T09:35:36.863Z,15.53
2019-05-25T09:38:02.737Z,15.78
2019-05-25T09:40:28.813Z,14.40
2019-05-25T09:42:54.812Z,15.85
2019-05-25T09:45:20.696Z,17.23
2019-05-25T09:47:46.533Z,17.15
2019-05-25T09:50:12.720Z,16.05
2019-05-25T09:52:38.511Z,15.88
2019-05-25T09:55:07.396Z,16.35
2019-05-25T09:57:33.235Z,16.02
2019-05-25T09:59:59.070Z,15.30
2019-05-25T10:02:24.945Z,16.15
2019-05-25T10:04:51.433Z,15.15
2019-05-25T10:07:17.901Z,15.28
2019-05-25T10:09:43.810Z,15.25
2019-05-25T10:12:09.673Z,14.07
2019-05-25T10:14:36.002Z,16.90
2019-05-25T10:17:01.872Z,14.25
2019-05-25T10:19:28.978Z,13.48
2019-05-25T10:21:54.795Z,15.72
2019-05-25T10:24:22.013Z,14.60
2019-05-25T10:26:47.853Z,14.60
2019-05-25T10:29:13.721Z,13.30
2019-05-25T10:31:39.532Z,14.55
2019-05-25T10:34:05.677Z,14.13
2019-05-25T10:36:31.518Z,14.53
2019-05-25T10:38:57.355Z,13.22
2019-05-25T10:41:27.493Z,13.32
2019-05-25T10:43:54.270Z,14.93
2019-05-25T10:46:24.742Z,13.58
2019-05-25T10:48:51.240Z,14.83
2019-05-25T10:51:17.181Z,13.48
2019-05-25T10:53:43.446Z,12.88
2019-05-25T10:56:09.314Z,13.03
2019-05-25T10:58:35.149Z,13.40
2019-05-25T11:01:00.973Z,14.53
2019-05-25T11:03:27.152Z,16.17
2019-05-25T11:05:52.993Z,14.83
2019-05-25T11:08:18.825Z,14.75
2019-05-25T11:10:45.352Z,16.70
2019-05-25T11:13:11.564Z,15.25
2019-05-25T11:15:37.400Z,16.23
2019-05-25T11:18:03.282Z,14.53
2019-05-25T11:20:29.150Z,14.83
2019-05-25T11:22:55.661Z,14.33
2019-05-25T11:25:21.911Z,12.18
2019-05-25T11:27:47.812Z,14.28
2019-05-25T11:30:13.778Z,14.28
2019-05-25T11:32:39.950Z,13.45
2019-05-25T11:35:05.897Z,13.22
2019-05-25T11:37:31.784Z,12.70
2019-05-25T11:39:57.619Z,12.05
2019-05-25T11:42:23.490Z,14.18
2019-05-25T11:44:49.850Z,13.22
2019-05-25T11:47:16.074Z,12.82
2019-05-25T11:49:42.304Z,11.05
2019-05-25T11:52:08.171Z,10.65
2019-05-25T11:54:34.354Z,9.65
2019-05-25T11:57:00.474Z,11.35
2019-05-25T11:59:26.637Z,10.60
2019-05-25T12:01:52.537Z,10.35
2019-05-25T12:04:18.363Z,8.65
2019-05-25T12:06:44.237Z,8.00
2019-05-25T12:09:10.143Z,7.17
2019-05-25T12:11:36.522Z,7.22
2019-05-25T12:14:02.706Z,7.22
2019-05-25T12:16:28.937Z,7.17
2019-05-25T12:18:55.159Z,7.25
2019-05-25T12:21:21.541Z,6.92
2019-05-25T12:23:47.502Z,6.62
2019-05-25T12:26:13.715Z,7.53
2019-05-25T12:28:39.629Z,5.70
2019-05-25T12:31:05.766Z,5.25
2019-05-25T12:33:31.970Z,6.17
2019-05-25T12:35:57.851Z,4.90
2019-05-25T12:38:23.679Z,4.85
2019-05-25T12:40:53.607Z,5.12
2019-05-25T12:43:17.747Z,4.03
2019-05-25T12:45:44.073Z,3.60
2019-05-25T12:48:09.936Z,4.00
2019-05-25T12:50:35.814Z,3.12
2019-05-25T12:53:01.714Z,3.80
2019-05-25T12:55:27.986Z,3.67
2019-05-25T12:57:53.838Z,3.25
2019-05-25T13:00:19.961Z,3.27
2019-05-25T13:02:46.050Z,4.15
2019-05-25T13:05:11.882Z,4.10
2019-05-25T13:07:38.187Z,4.08
2019-05-25T13:10:05.046Z,4.10
2019-05-25T13:12:30.868Z,4.00
2019-05-25T13:14:56.761Z,4.00
2019-05-25T13:17:22.980Z,3.80
2019-05-25T13:19:48.802Z,3.70
2019-05-25T13:22:14.994Z,3.90
2019-05-25T13:24:40.895Z,5.15
2019-05-25T13:27:06.771Z,5.45
2019-05-25T13:29:32.584Z,4.58
2019-05-25T13:31:58.443Z,4.10
2019-05-25T13:34:24.921Z,3.80
2019-05-25T13:36:51.150Z,3.40
2019-05-25T13:39:17.400Z,3.45
2019-05-25T13:41:44.101Z,3.65
2019-05-25T13:44:10.328Z,3.87
2019-05-25T13:46:36.791Z,4.53
2019-05-25T13:49:02.627Z,3.70
2019-05-25T13:51:28.833Z,4.15
2019-05-25T13:53:55.062Z,3.90
2019-05-25T13:56:20.921Z,4.17
2019-05-25T13:58:47.075Z,4.60
2019-05-25T14:01:27.464Z,4.17
2019-05-25T14:03:40.958Z,3.80
2019-05-25T14:06:06.788Z,3.65
2019-05-25T14:08:32.738Z,3.95
2019-05-25T14:10:59.494Z,3.70
2019-05-25T14:13:27.096Z,4.20
2019-05-25T14:16:06.202Z,3.87
2019-05-25T14:18:21.457Z,4.55
2019-05-25T14:20:47.683Z,4.33
2019-05-25T14:23:13.563Z,4.37
2019-05-25T14:25:39.689Z,5.08
2019-05-25T14:28:05.825Z,4.85
2019-05-25T14:30:31.937Z,4.03
2019-05-25T14:32:57.781Z,4.00
2019-05-25T14:35:23.753Z,4.00
2019-05-25T14:37:49.601Z,4.55
2019-05-25T14:40:15.478Z,4.45
2019-05-25T14:42:41.706Z,4.17
2019-05-25T14:45:07.585Z,3.92
2019-05-25T14:47:33.769Z,3.95
2019-05-25T14:49:59.625Z,4.62
2019-05-25T14:52:25.810Z,3.60
2019-05-25T14:54:51.713Z,4.08
2019-05-25T14:57:17.854Z,4.55
2019-05-25T14:59:44.098Z,3.92
2019-05-25T15:02:09.993Z,4.37
2019-05-25T15:04:36.131Z,4.50
2019-05-25T15:07:02.054Z,5.08
2019-05-25T15:09:28.349Z,4.70
2019-05-25T15:11:54.310Z,4.15
2019-05-25T15:14:20.303Z,4.30
2019-05-25T15:16:46.388Z,4.60
2019-05-25T15:19:12.738Z,4.35
2019-05-25T15:21:38.800Z,4.83
2019-05-25T15:24:04.885Z,4.62
2019-05-25T15:26:31.053Z,4.40
2019-05-25T15:28:56.896Z,3.75
2019-05-25T15:31:23.014Z,4.60
2019-05-25T15:33:48.890Z,4.78
2019-05-25T15:36:14.979Z,4.37
2019-05-25T15:38:41.349Z,4.90
2019-05-25T15:41:07.175Z,4.92
2019-05-25T15:43:33.773Z,4.80
2019-05-25T15:46:00.881Z,4.85
2019-05-25T15:48:26.712Z,4.03
2019-05-25T15:50:52.868Z,4.62
2019-05-25T15:53:18.758Z,4.95
2019-05-25T15:55:44.715Z,4.83
2019-05-25T15:58:10.875Z,4.12
2019-05-25T16:00:46.789Z,4.67
2019-05-25T16:03:13.230Z,4.65
2019-05-25T16:05:39.278Z,4.40
2019-05-25T16:08:05.166Z,4.78
2019-05-25T16:10:31.702Z,4.62
2019-05-25T16:12:57.525Z,5.65
2019-05-25T16:15:26.533Z,5.60
2019-05-25T16:17:52.365Z,6.15
2019-05-25T16:20:20.371Z,5.85
2019-05-25T16:22:46.886Z,5.15
2019-05-25T16:25:13.123Z,5.00
2019-05-25T16:27:39.006Z,5.12
2019-05-25T16:30:05.234Z,5.03
2019-05-25T16:32:31.056Z,4.85
2019-05-25T16:34:56.955Z,4.72
2019-05-25T16:37:23.070Z,5.20
2019-05-25T16:39:49.144Z,4.45
2019-05-25T16:42:15.318Z,4.65
2019-05-25T16:44:41.138Z,4.70
2019-05-25T16:47:07.565Z,5.85
2019-05-25T16:49:33.799Z,4.75
2019-05-25T16:52:00.026Z,5.72
2019-05-25T16:54:26.155Z,5.30
2019-05-25T16:56:52.045Z,5.22
2019-05-25T16:59:18.301Z,5.87
2019-05-25T17:01:48.572Z,5.62
2019-05-25T17:04:12.467Z,6.05
2019-05-25T17:06:38.628Z,5.42
2019-05-25T17:09:06.919Z,5.33
2019-05-25T17:11:32.855Z,5.83
2019-05-25T17:13:58.742Z,5.65
2019-05-25T17:16:24.572Z,4.97
2019-05-25T17:18:50.425Z,5.72
2019-05-25T17:21:16.306Z,5.53
2019-05-25T17:23:42.143Z,5.35
2019-05-25T17:26:07.999Z,5.05
2019-05-25T17:28:33.852Z,6.08
2019-05-25T17:31:00.033Z,5.62
2019-05-25T17:33:25.869Z,5.65
2019-05-25T17:35:51.793Z,4.97
2019-05-25T17:38:17.632Z,5.12
2019-05-25T17:40:43.486Z,4.50
2019-05-25T17:43:09.326Z,4.83
2019-05-25T17:45:35.463Z,4.92
2019-05-25T17:48:01.389Z,4.80
2019-05-25T17:50:27.512Z,5.22
2019-05-25T17:52:53.767Z,4.47
2019-05-25T17:55:19.727Z,4.80
2019-05-25T17:57:45.618Z,4.55
2019-05-25T18:00:11.575Z,5.30
2019-05-25T18:02:37.410Z,4.95
2019-05-25T18:05:04.259Z,4.80
2019-05-25T18:07:30.082Z,4.53
2019-05-25T18:09:56.373Z,4.72
2019-05-25T18:12:22.285Z,4.70
2019-05-25T18:14:48.225Z,4.78
2019-05-25T18:17:14.771Z,4.42
2019-05-25T18:19:40.644Z,4.80
2019-05-25T18:22:06.524Z,4.95
2019-05-25T18:24:32.358Z,4.90
2019-05-25T18:26:58.889Z,4.58
2019-05-25T18:29:24.759Z,4.28
2019-05-25T18:31:51.011Z,4.80
2019-05-25T18:34:22.038Z,4.62
2019-05-25T18:36:45.850Z,4.45
2019-05-25T18:39:11.698Z,4.35
2019-05-25T18:41:38.294Z,4.50
2019-05-25T18:44:04.177Z,4.20
2019-05-25T18:46:30.852Z,4.35
2019-05-25T18:48:57.269Z,4.75
2019-05-25T18:51:23.735Z,4.53
2019-05-25T18:53:49.876Z,4.67
2019-05-25T18:56:15.720Z,4.00
2019-05-25T18:58:42.237Z,4.37
2019-05-25T19:01:08.087Z,4.12
2019-05-25T19:03:33.906Z,4.35
2019-05-25T19:05:59.801Z,4.62
2019-05-25T19:08:25.675Z,4.65
2019-05-25T19:10:51.538Z,4.58
2019-05-25T19:13:17.550Z,4.65
2019-05-25T19:15:44.271Z,4.70
2019-05-25T19:18:10.119Z,5.75
2019-05-25T19:20:35.998Z,5.03
2019-05-25T19:23:01.978Z,5.03
2019-05-25T19:25:27.818Z,7.33
2019-05-25T19:27:53.930Z,4.30
2019-05-25T19:30:19.786Z,5.60
2019-05-25T19:32:45.683Z,4.10
2019-05-25T19:35:11.760Z,4.35
2019-05-25T19:37:37.640Z,4.28
2019-05-25T19:40:08.694Z,4.42
2019-05-25T19:42:32.401Z,4.70
2019-05-25T19:44:58.289Z,4.17
2019-05-25T19:47:24.139Z,4.95
2019-05-25T19:49:49.991Z,4.70
2019-05-25T19:52:15.877Z,4.20
2019-05-25T19:54:42.187Z,4.22
2019-05-25T19:57:08.064Z,4.50
2019-05-25T19:59:34.219Z,3.90
2019-05-25T20:02:00.020Z,4.65
2019-05-25T20:04:25.885Z,5.22
2019-05-25T20:06:51.783Z,5.25
2019-05-25T20:09:18.297Z,6.62
2019-05-25T20:11:44.536Z,5.65
2019-05-25T20:14:10.413Z,4.78
2019-05-25T20:16:36.362Z,5.10
2019-05-25T20:19:03.815Z,5.30
2019-05-25T20:21:29.673Z,4.62
2019-05-25T20:23:55.522Z,5.17
2019-05-25T20:26:21.605Z,5.37
2019-05-25T20:28:50.684Z,5.08
2019-05-25T20:31:15.616Z,6.08
2019-05-25T20:33:42.233Z,5.08
2019-05-25T20:36:08.059Z,5.33
2019-05-25T20:38:34.278Z,5.72
2019-05-25T20:41:00.113Z,6.33
2019-05-25T20:43:26.332Z,5.50
2019-05-25T20:45:53.084Z,6.25
2019-05-25T20:48:19.923Z,5.75
2019-05-25T20:50:46.248Z,5.70
2019-05-25T20:53:12.713Z,6.20
2019-05-25T20:55:38.762Z,6.00
2019-05-25T20:58:04.909Z,5.80
2019-05-25T21:00:30.933Z,5.80
2019-05-25T21:03:06.223Z,5.65
2019-05-25T21:05:24.709Z,5.10
2019-05-25T21:07:51.033Z,5.87
2019-05-25T21:10:16.781Z,5.33
2019-05-25T21:12:43.000Z,6.12
2019-05-25T21:15:08.825Z,5.90
2019-05-25T21:17:35.525Z,5.53
2019-05-25T21:20:01.352Z,6.22
2019-05-25T21:22:27.299Z,5.87
2019-05-25T21:24:53.739Z,5.97
2019-05-25T21:27:19.630Z,6.33
2019-05-25T21:29:45.476Z,5.92
2019-05-25T21:32:11.322Z,5.95
2019-05-25T21:34:37.415Z,6.17
2019-05-25T21:37:03.757Z,6.17
2019-05-25T21:39:29.887Z,8.00
2019-05-25T21:41:55.715Z,6.72
2019-05-25T21:44:22.094Z,7.17
2019-05-25T21:46:48.429Z,6.05
2019-05-25T21:49:14.630Z,6.95
2019-05-25T21:51:40.893Z,5.85
2019-05-25T21:54:07.176Z,6.33
2019-05-25T21:56:33.118Z,7.03
2019-05-25T21:58:58.978Z,6.90
2019-05-25T22:01:25.110Z,6.35
2019-05-25T22:03:51.462Z,6.65
2019-05-25T22:06:24.223Z,7.08
2019-05-25T22:08:45.497Z,6.75
2019-05-25T22:11:11.918Z,7.17
2019-05-25T22:13:42.358Z,7.53
2019-05-25T22:16:08.207Z,7.50
2019-05-25T22:18:34.381Z,8.05
2019-05-25T22:21:00.185Z,8.38
2019-05-25T22:23:26.327Z,8.20
2019-05-25T22:25:52.157Z,9.08
2019-05-25T22:28:18.283Z,9.25
2019-05-25T22:30:44.403Z,9.43
2019-05-25T22:33:10.232Z,8.85
2019-05-25T22:35:36.216Z,8.48
2019-05-25T22:38:02.040Z,9.10
2019-05-25T22:40:27.882Z,9.20
2019-05-25T22:42:53.750Z,9.38
2019-05-25T22:45:19.608Z,9.38
2019-05-25T22:47:45.491Z,9.50
2019-05-25T22:50:11.597Z,9.30
2019-05-25T22:52:37.469Z,9.83
2019-05-25T22:55:04.564Z,9.90
2019-05-25T22:57:30.685Z,9.95
2019-05-25T22:59:58.741Z,9.78
2019-05-25T23:02:25.299Z,9.25
2019-05-25T23:04:51.673Z,10.58
2019-05-25T23:07:17.554Z,10.60
2019-05-25T23:09:43.395Z,9.88
2019-05-25T23:12:11.084Z,9.93
2019-05-25T23:14:37.617Z,10.45
2019-05-25T23:17:03.549Z,10.45
2019-05-25T23:19:29.675Z,10.60
2019-05-25T23:21:57.230Z,10.35
2019-05-25T23:24:23.039Z,10.95
2019-05-25T23:26:50.366Z,11.00
2019-05-25T23:29:16.181Z,11.00
2019-05-25T23:31:42.274Z,11.40
2019-05-25T23:34:08.176Z,10.82
2019-05-25T23:36:33.982Z,9.68
2019-05-25T23:38:59.826Z,11.57
2019-05-25T23:41:26.493Z,11.20
2019-05-25T23:43:52.783Z,10.43
2019-05-25T23:46:19.609Z,9.58
2019-05-25T23:48:45.718Z,9.00
2019-05-25T23:51:12.372Z,9.83
2019-05-25T23:53:39.168Z,9.43
2019-05-25T23:56:05.651Z,9.28
2019-05-25T23:58:31.602Z,9.23
